sensor_id;sensor_type;location;lat;lon;timestamp;P1;P2;P0
57798;PMS7003;43626;53.866;30.298;2023-07-31T00:00:25;150.8;148.8;140.4
57798;PMS7003;43626;53.866;30.298;2023-07-31T00:05:39;160;157.2;149
57798;PMS7003;43626;53.866;30.298;2023-07-31T00:11:03;152.6;151.2;143.4
57798;PMS7003;43626;53.866;30.298;2023-07-31T00:15:33;157;154.4;146
57798;PMS7003;43626;53.866;30.298;2023-07-31T00:20:37;159.8;158;149.4
57798;PMS7003;43626;53.866;30.298;2023-07-31T00:26:03;161.3;160.5;153.3
57798;PMS7003;43626;53.866;30.298;2023-07-31T00:30:41;161.4;159.2;150.2
57798;PMS7003;43626;53.866;30.298;2023-07-31T00:35:25;148.4;146.8;138.2
57798;PMS7003;43626;53.866;30.298;2023-07-31T00:40:19;153;150.2;141.2
57798;PMS7003;43626;53.866;30.298;2023-07-31T00:46:03;145.6;144.4;135
57798;PMS7003;43626;53.866;30.298;2023-07-31T00:50:53;155.8;153.8;146.4
57798;PMS7003;43626;53.866;30.298;2023-07-31T00:55:37;156;154.4;146.6
57798;PMS7003;43626;53.866;30.298;2023-07-31T01:00:19;162;160.2;151.8
57798;PMS7003;43626;53.866;30.298;2023-07-31T01:06:04;155;152.6;143.6
57798;PMS7003;43626;53.866;30.298;2023-07-31T01:10:20;160.2;157.8;149.8
57798;PMS7003;43626;53.866;30.298;2023-07-31T01:15:19;167;164.2;155.2
57798;PMS7003;43626;53.866;30.298;2023-07-31T01:20:51;165.4;162;154
57798;PMS7003;43626;53.866;30.298;2023-07-31T01:26:03;164.8;163.3;154.5
57798;PMS7003;43626;53.866;30.298;2023-07-31T01:31:03;168.4;166.8;157.4
57798;PMS7003;43626;53.866;30.298;2023-07-31T01:35:53;160.4;158.2;150
57798;PMS7003;43626;53.866;30.298;2023-07-31T01:40:19;174.6;171.4;162.6
57798;PMS7003;43626;53.866;30.298;2023-07-31T01:45:19;169.8;167.4;159
57798;PMS7003;43626;53.866;30.298;2023-07-31T01:51:03;164;161.8;153.2
57798;PMS7003;43626;53.866;30.298;2023-07-31T01:55:41;167;164.8;156.6
57798;PMS7003;43626;53.866;30.298;2023-07-31T02:00:53;155.6;154.4;146.4
57798;PMS7003;43626;53.866;30.298;2023-07-31T02:06:03;168.4;165.6;157.6
57798;PMS7003;43626;53.866;30.298;2023-07-31T02:10:49;161.8;158.4;149.8
57798;PMS7003;43626;53.866;30.298;2023-07-31T02:15:20;160.8;158.2;149.6
57798;PMS7003;43626;53.866;30.298;2023-07-31T02:20:19;159.2;155;146.4
57798;PMS7003;43626;53.866;30.298;2023-07-31T02:26:03;141.8;139.8;131.5
57798;PMS7003;43626;53.866;30.298;2023-07-31T02:31:03;161.6;160;151.6
57798;PMS7003;43626;53.866;30.298;2023-07-31T02:36:03;139.6;136.6;128.2
57798;PMS7003;43626;53.866;30.298;2023-07-31T02:40:41;156.2;153.6;146.2
57798;PMS7003;43626;53.866;30.298;2023-07-31T02:45:50;148.4;145.4;137.4
57798;PMS7003;43626;53.866;30.298;2023-07-31T02:50:25;130.2;128;119.8
57798;PMS7003;43626;53.866;30.298;2023-07-31T02:55:49;124.6;122.6;115.4
57798;PMS7003;43626;53.866;30.298;2023-07-31T03:01:03;150.4;148.8;141.6
57798;PMS7003;43626;53.866;30.298;2023-07-31T03:05:47;138.4;136.4;129
57798;PMS7003;43626;53.866;30.298;2023-07-31T03:10:37;142.8;139.6;132.4
57798;PMS7003;43626;53.866;30.298;2023-07-31T03:16:03;145.8;144.2;136
57798;PMS7003;43626;53.866;30.298;2023-07-31T03:20:31;142.8;140.2;133.2
57798;PMS7003;43626;53.866;30.298;2023-07-31T03:25:19;153.2;152;145.4
57798;PMS7003;43626;53.866;30.298;2023-07-31T03:30:27;159.3;157.3;150.8
57798;PMS7003;43626;53.866;30.298;2023-07-31T03:35:47;157.2;156;150
57798;PMS7003;43626;53.866;30.298;2023-07-31T03:40:47;154.6;153.2;147
57798;PMS7003;43626;53.866;30.298;2023-07-31T03:45:49;145.4;144;137.8
57798;PMS7003;43626;53.866;30.298;2023-07-31T03:50:39;153.2;150.2;143.4
57798;PMS7003;43626;53.866;30.298;2023-07-31T03:55:25;153.4;152.8;145
57798;PMS7003;43626;53.866;30.298;2023-07-31T04:00:47;144.8;143.8;136.2
57798;PMS7003;43626;53.866;30.298;2023-07-31T04:05:33;156.2;154.8;148.8
57798;PMS7003;43626;53.866;30.298;2023-07-31T04:10:19;141.4;140.8;134.4
57798;PMS7003;43626;53.866;30.298;2023-07-31T04:15:21;149.6;147.4;141
57798;PMS7003;43626;53.866;30.298;2023-07-31T04:21:03;146.8;145.8;139.8
57798;PMS7003;43626;53.866;30.298;2023-07-31T04:25:27;149.4;148;141.8
57798;PMS7003;43626;53.866;30.298;2023-07-31T04:30:25;151.5;150.5;144.5
57798;PMS7003;43626;53.866;30.298;2023-07-31T04:36:03;150.4;148.6;140.6
57798;PMS7003;43626;53.866;30.298;2023-07-31T04:40:33;153.6;150.4;138.6
57798;PMS7003;43626;53.866;30.298;2023-07-31T04:45:33;142.2;140.8;133
57798;PMS7003;43626;53.866;30.298;2023-07-31T04:50:39;132.6;131.4;124.2
57798;PMS7003;43626;53.866;30.298;2023-07-31T04:55:53;132.8;131.8;126
57798;PMS7003;43626;53.866;30.298;2023-07-31T05:00:19;136;134.2;127.4
57798;PMS7003;43626;53.866;30.298;2023-07-31T05:05:23;130.6;129.6;123.4
57798;PMS7003;43626;53.866;30.298;2023-07-31T05:11:01;136.2;135.6;129
57798;PMS7003;43626;53.866;30.298;2023-07-31T05:15:51;132.6;130;124.4
57798;PMS7003;43626;53.866;30.298;2023-07-31T05:20:35;142.6;136;130.8
57798;PMS7003;43626;53.866;30.298;2023-07-31T05:26:03;144;138.6;132.8
57798;PMS7003;43626;53.866;30.298;2023-07-31T05:31:01;145;137.8;133.3
57798;PMS7003;43626;53.866;30.298;2023-07-31T05:35:23;148.2;141.4;136
57798;PMS7003;43626;53.866;30.298;2023-07-31T05:40:25;160.6;152.8;147.8
57798;PMS7003;43626;53.866;30.298;2023-07-31T05:45:33;160;154;150.2
57798;PMS7003;43626;53.866;30.298;2023-07-31T05:50:49;154;148;143.4
57798;PMS7003;43626;53.866;30.298;2023-07-31T05:56:01;159.8;152.4;147.2
57798;PMS7003;43626;53.866;30.298;2023-07-31T06:00:37;154.6;147.8;142.2
57798;PMS7003;43626;53.866;30.298;2023-07-31T06:05:23;156.6;149.2;144.4
57798;PMS7003;43626;53.866;30.298;2023-07-31T06:10:31;155.2;149.2;144.2
57798;PMS7003;43626;53.866;30.298;2023-07-31T06:16:01;155.6;149.6;145.4
57798;PMS7003;43626;53.866;30.298;2023-07-31T06:20:47;156.6;150.8;147
57798;PMS7003;43626;53.866;30.298;2023-07-31T06:25:47;158.6;152.2;148
57798;PMS7003;43626;53.866;30.298;2023-07-31T06:30:59;167.3;163.3;160.5
57798;PMS7003;43626;53.866;30.298;2023-07-31T06:35:47;183.2;178.4;175.2
57798;PMS7003;43626;53.866;30.298;2023-07-31T06:40:19;184.6;180.4;176.8
57798;PMS7003;43626;53.866;30.298;2023-07-31T06:45:33;173.2;169.4;166.2
57798;PMS7003;43626;53.866;30.298;2023-07-31T06:51:00;174;170.6;166.8
57798;PMS7003;43626;53.866;30.298;2023-07-31T06:55:59;165;159.6;155.4
57798;PMS7003;43626;53.866;30.298;2023-07-31T07:00:59;186;180.2;176
57798;PMS7003;43626;53.866;30.298;2023-07-31T07:05:59;200.6;198.8;195.2
57798;PMS7003;43626;53.866;30.298;2023-07-31T07:10:47;203.4;201;198.8
57798;PMS7003;43626;53.866;30.298;2023-07-31T07:15:27;170;166.6;164
57798;PMS7003;43626;53.866;30.298;2023-07-31T07:20:50;144;140.4;137.6
57798;PMS7003;43626;53.866;30.298;2023-07-31T07:25:59;147.4;142.4;140.6
57798;PMS7003;43626;53.866;30.298;2023-07-31T07:30:43;153;149.5;148
57798;PMS7003;43626;53.866;30.298;2023-07-31T07:35:19;164.6;162;159.4
57798;PMS7003;43626;53.866;30.298;2023-07-31T07:40:59;160;156.8;154.6
57798;PMS7003;43626;53.866;30.298;2023-07-31T07:45:59;163.6;159;156.4
57798;PMS7003;43626;53.866;30.298;2023-07-31T07:50:27;184.4;181;168
57798;PMS7003;43626;53.866;30.298;2023-07-31T07:55:31;167.8;163.6;158.6
57798;PMS7003;43626;53.866;30.298;2023-07-31T08:00:33;161.8;157.4;153
57798;PMS7003;43626;53.866;30.298;2023-07-31T08:05:43;182.4;178;166.4
57798;PMS7003;43626;53.866;30.298;2023-07-31T08:10:47;183.2;173.6;155.8
57798;PMS7003;43626;53.866;30.298;2023-07-31T08:15:37;380.8;337.2;212.8
57798;PMS7003;43626;53.866;30.298;2023-07-31T08:20:49;323.6;290.4;197.6
57798;PMS7003;43626;53.866;30.298;2023-07-31T08:25:19;675.2;554.2;254
57798;PMS7003;43626;53.866;30.298;2023-07-31T08:30:31;319.2;287.2;189.2
57798;PMS7003;43626;53.866;30.298;2023-07-31T08:35:33;164.3;160;155.5
57798;PMS7003;43626;53.866;30.298;2023-07-31T08:40:31;154.4;151.4;148.2
57798;PMS7003;43626;53.866;30.298;2023-07-31T08:45:59;146;143.4;141
57798;PMS7003;43626;53.866;30.298;2023-07-31T08:50:19;141.2;139.4;138
57798;PMS7003;43626;53.866;30.298;2023-07-31T08:55:19;143.2;141.6;139.8
57798;PMS7003;43626;53.866;30.298;2023-07-31T09:00:21;144.8;144.6;142.2
57798;PMS7003;43626;53.866;30.298;2023-07-31T09:05:31;141;140.8;138.8
57798;PMS7003;43626;53.866;30.298;2023-07-31T09:10:19;148.4;147.8;145.6
57798;PMS7003;43626;53.866;30.298;2023-07-31T09:15:37;145.4;145;142.8
57798;PMS7003;43626;53.866;30.298;2023-07-31T09:20:59;146.6;146.2;144.4
57798;PMS7003;43626;53.866;30.298;2023-07-31T09:25:27;152.4;152.2;150.4
57798;PMS7003;43626;53.866;30.298;2023-07-31T09:30:45;150.2;148.2;146
57798;PMS7003;43626;53.866;30.298;2023-07-31T09:35:59;149;148;145.5
57798;PMS7003;43626;53.866;30.298;2023-07-31T09:40:49;141.8;140;138
57798;PMS7003;43626;53.866;30.298;2023-07-31T09:45:34;144.4;143.4;141
57798;PMS7003;43626;53.866;30.298;2023-07-31T09:50:33;144;143.2;140.8
57798;PMS7003;43626;53.866;30.298;2023-07-31T09:56:01;142;141.6;139
57798;PMS7003;43626;53.866;30.298;2023-07-31T10:00:19;134;133.4;129
57798;PMS7003;43626;53.866;30.298;2023-07-31T10:05:19;137.4;136.6;131.4
57798;PMS7003;43626;53.866;30.298;2023-07-31T10:11:01;138.4;138;132.8
57798;PMS7003;43626;53.866;30.298;2023-07-31T10:15:51;133.6;133.2;129.8
57798;PMS7003;43626;53.866;30.298;2023-07-31T10:21:01;142;141.4;135.6
57798;PMS7003;43626;53.866;30.298;2023-07-31T10:25:37;143.8;143.4;138.8
57798;PMS7003;43626;53.866;30.298;2023-07-31T10:30:20;137.2;136.6;131.4
57798;PMS7003;43626;53.866;30.298;2023-07-31T10:35:19;140.3;140;135.5
57798;PMS7003;43626;53.866;30.298;2023-07-31T10:41:07;142.6;142.2;135.8
57798;PMS7003;43626;53.866;30.298;2023-07-31T10:45:47;136.4;136.2;131.6
57798;PMS7003;43626;53.866;30.298;2023-07-31T10:50:51;144.6;144.4;139.6
57798;PMS7003;43626;53.866;30.298;2023-07-31T10:55:59;140.2;139.8;132.2
57798;PMS7003;43626;53.866;30.298;2023-07-31T11:00:48;149.8;149;139.8
57798;PMS7003;43626;53.866;30.298;2023-07-31T11:05:26;158.8;157.8;146.6
57798;PMS7003;43626;53.866;30.298;2023-07-31T11:10:31;144.2;144;129.6
57798;PMS7003;43626;53.866;30.298;2023-07-31T11:16:00;148.8;148.2;133.4
57798;PMS7003;43626;53.866;30.298;2023-07-31T11:20:59;146;145.6;131.2
57798;PMS7003;43626;53.866;30.298;2023-07-31T11:25:59;151.2;151.2;136.8
57798;PMS7003;43626;53.866;30.298;2023-07-31T11:30:59;149.6;149.2;134.6
57798;PMS7003;43626;53.866;30.298;2023-07-31T11:35:48;147.3;146.8;135.5
57798;PMS7003;43626;53.866;30.298;2023-07-31T11:40:40;165.8;165.8;152.8
57798;PMS7003;43626;53.866;30.298;2023-07-31T11:46:01;159.8;159.4;147.4
57798;PMS7003;43626;53.866;30.298;2023-07-31T11:51:02;150.8;150.8;138.8
57798;PMS7003;43626;53.866;30.298;2023-07-31T11:55:45;157.4;157.4;144.6
57798;PMS7003;43626;53.866;30.298;2023-07-31T12:00:31;139.6;138.6;126.2
57798;PMS7003;43626;53.866;30.298;2023-07-31T12:06:01;142.6;142;129.2
57798;PMS7003;43626;53.866;30.298;2023-07-31T12:10:35;143.2;142.4;131.6
57798;PMS7003;43626;53.866;30.298;2023-07-31T12:15:28;173.6;173.6;166.4
57798;PMS7003;43626;53.866;30.298;2023-07-31T12:20:27;189.2;187.8;180.8
57798;PMS7003;43626;53.866;30.298;2023-07-31T12:25:33;196.4;196;188.6
57798;PMS7003;43626;53.866;30.298;2023-07-31T12:30:40;210.6;210.4;203.8
57798;PMS7003;43626;53.866;30.298;2023-07-31T12:35:47;203.2;202.8;193
57798;PMS7003;43626;53.866;30.298;2023-07-31T12:41:03;186.8;186.3;175
57798;PMS7003;43626;53.866;30.298;2023-07-31T12:45:35;183.8;183.8;173.6
57798;PMS7003;43626;53.866;30.298;2023-07-31T12:50:19;184.8;184.2;172.6
57798;PMS7003;43626;53.866;30.298;2023-07-31T12:55:47;190.6;190.4;180.4
57798;PMS7003;43626;53.866;30.298;2023-07-31T13:00:49;190.2;190.2;180.2
57798;PMS7003;43626;53.866;30.298;2023-07-31T13:05:47;202.6;202.4;189.6
57798;PMS7003;43626;53.866;30.298;2023-07-31T13:11:03;191.2;190.6;173
57798;PMS7003;43626;53.866;30.298;2023-07-31T13:15:37;185.6;185.6;166.6
57798;PMS7003;43626;53.866;30.298;2023-07-31T13:20:23;202.4;201.8;188.2
57798;PMS7003;43626;53.866;30.298;2023-07-31T13:25:47;200;200;185.2
57798;PMS7003;43626;53.866;30.298;2023-07-31T13:30:31;196.4;195.6;179.8
57798;PMS7003;43626;53.866;30.298;2023-07-31T13:35:37;187.8;187.2;167
57798;PMS7003;43626;53.866;30.298;2023-07-31T13:40:53;207.5;207.3;184.3
57798;PMS7003;43626;53.866;30.298;2023-07-31T13:46:03;222.2;222;197.4
57798;PMS7003;43626;53.866;30.298;2023-07-31T13:50:19;211.8;211.2;190.2
57798;PMS7003;43626;53.866;30.298;2023-07-31T13:55:37;227.6;226.8;199.6
57798;PMS7003;43626;53.866;30.298;2023-07-31T14:01:03;222.4;222;196.2
57798;PMS7003;43626;53.866;30.298;2023-07-31T14:05:31;206.6;206.4;187
57798;PMS7003;43626;53.866;30.298;2023-07-31T14:10:37;208.6;208.4;186.6
57798;PMS7003;43626;53.866;30.298;2023-07-31T14:15:37;205.8;205.8;187.8
57798;PMS7003;43626;53.866;30.298;2023-07-31T14:20:53;199.6;198.8;180.2
57798;PMS7003;43626;53.866;30.298;2023-07-31T14:25:19;206.2;205.2;186.6
57798;PMS7003;43626;53.866;30.298;2023-07-31T14:30:23;195.8;194.6;177.4
57798;PMS7003;43626;53.866;30.298;2023-07-31T14:36:03;187.6;186.8;171
57798;PMS7003;43626;53.866;30.298;2023-07-31T14:40:53;180;180;164
57798;PMS7003;43626;53.866;30.298;2023-07-31T14:46:04;180.6;180;165.2
57798;PMS7003;43626;53.866;30.298;2023-07-31T14:50:37;179.6;179.6;165
57798;PMS7003;43626;53.866;30.298;2023-07-31T14:55:19;112.4;112;104.4
57798;PMS7003;43626;53.866;30.298;2023-07-31T15:00:23;104.8;104.4;96.6
57798;PMS7003;43626;53.866;30.298;2023-07-31T15:06:03;177.4;176.4;162.6
57798;PMS7003;43626;53.866;30.298;2023-07-31T15:10:47;174;173;160.6
57798;PMS7003;43626;53.866;30.298;2023-07-31T15:15:53;177.8;176.4;161
57798;PMS7003;43626;53.866;30.298;2023-07-31T15:21:03;178;177.8;160.8
57798;PMS7003;43626;53.866;30.298;2023-07-31T15:25:47;183.6;182.4;167.4
57798;PMS7003;43626;53.866;30.298;2023-07-31T15:30:33;182.6;182.6;166.2
57798;PMS7003;43626;53.866;30.298;2023-07-31T15:35:33;178.2;177.6;160.4
57798;PMS7003;43626;53.866;30.298;2023-07-31T15:41:03;183.3;182.3;166.8
57798;PMS7003;43626;53.866;30.298;2023-07-31T15:46:01;180.6;180.4;165.4
57798;PMS7003;43626;53.866;30.298;2023-07-31T15:51:03;181.8;181.4;167
57798;PMS7003;43626;53.866;30.298;2023-07-31T15:56:03;187.2;186.4;174.2
57798;PMS7003;43626;53.866;30.298;2023-07-31T16:00:39;188.6;187.8;176
57798;PMS7003;43626;53.866;30.298;2023-07-31T16:05:27;182;181.4;169.8
57798;PMS7003;43626;53.866;30.298;2023-07-31T16:10:47;184;183;167.8
57798;PMS7003;43626;53.866;30.298;2023-07-31T16:16:03;183.4;183.2;169.6
57798;PMS7003;43626;53.866;30.298;2023-07-31T16:20:47;186.4;186;173
57798;PMS7003;43626;53.866;30.298;2023-07-31T16:25:37;187.2;187;174
57798;PMS7003;43626;53.866;30.298;2023-07-31T16:31:03;180.8;180.8;166.6
57798;PMS7003;43626;53.866;30.298;2023-07-31T16:35:19;182.8;181.6;168.4
57798;PMS7003;43626;53.866;30.298;2023-07-31T16:40:23;185.6;184.4;172.6
57798;PMS7003;43626;53.866;30.298;2023-07-31T16:45:29;181;180.8;168.8
57798;PMS7003;43626;53.866;30.298;2023-07-31T16:50:46;189;188.6;178
57798;PMS7003;43626;53.866;30.298;2023-07-31T16:55:47;212.8;212.2;200.4
57798;PMS7003;43626;53.866;30.298;2023-07-31T17:00:29;222.2;221.4;208.4
57798;PMS7003;43626;53.866;30.298;2023-07-31T17:05:19;210;209;199.8
57798;PMS7003;43626;53.866;30.298;2023-07-31T17:10:19;197.2;196.6;187.8
57798;PMS7003;43626;53.866;30.298;2023-07-31T17:15:23;165;163.8;153
57798;PMS7003;43626;53.866;30.298;2023-07-31T17:20:29;164.8;162.6;152.8
57798;PMS7003;43626;53.866;30.298;2023-07-31T17:25:19;168.6;167.2;157.6
57798;PMS7003;43626;53.866;30.298;2023-07-31T17:30:47;157.2;157;147.4
57798;PMS7003;43626;53.866;30.298;2023-07-31T17:36:03;165.4;163.8;151.4
57798;PMS7003;43626;53.866;30.298;2023-07-31T17:40:37;158;154.4;141
57798;PMS7003;43626;53.866;30.298;2023-07-31T17:45:19;156.8;155.8;143.8
57798;PMS7003;43626;53.866;30.298;2023-07-31T17:50:49;146.2;144.4;135
57798;PMS7003;43626;53.866;30.298;2023-07-31T17:55:23;138.4;136;125.6
57798;PMS7003;43626;53.866;30.298;2023-07-31T18:00:23;137.8;136;126.8
57798;PMS7003;43626;53.866;30.298;2023-07-31T18:05:55;140.2;136.8;128.2
57798;PMS7003;43626;53.866;30.298;2023-07-31T18:11:05;144.2;142.4;134.8
57798;PMS7003;43626;53.866;30.298;2023-07-31T18:15:31;140.2;139.2;134.6
57798;PMS7003;43626;53.866;30.298;2023-07-31T18:20:19;141.8;139.8;135.4
57798;PMS7003;43626;53.866;30.298;2023-07-31T18:25:39;140.4;138.8;134
57798;PMS7003;43626;53.866;30.298;2023-07-31T18:30:56;145.4;144;139
57798;PMS7003;43626;53.866;30.298;2023-07-31T18:35:23;145.6;143.4;139
57798;PMS7003;43626;53.866;30.298;2023-07-31T18:40:19;145;144.2;140.6
57798;PMS7003;43626;53.866;30.298;2023-07-31T18:45:55;146.3;144.8;140.5
57798;PMS7003;43626;53.866;30.298;2023-07-31T18:50:19;150.8;149.6;146.2
57798;PMS7003;43626;53.866;30.298;2023-07-31T18:55:19;153.8;153.2;149.6
57798;PMS7003;43626;53.866;30.298;2023-07-31T19:01:05;151;149.8;145.6
57798;PMS7003;43626;53.866;30.298;2023-07-31T19:05:59;150.2;149.4;145
57798;PMS7003;43626;53.866;30.298;2023-07-31T19:10:19;145.4;144.2;140.8
57798;PMS7003;43626;53.866;30.298;2023-07-31T19:15:35;139.2;137.8;133.4
57798;PMS7003;43626;53.866;30.298;2023-07-31T19:21:03;143.6;141.8;138.4
57798;PMS7003;43626;53.866;30.298;2023-07-31T19:25:23;153.2;152;148.8
57798;PMS7003;43626;53.866;30.298;2023-07-31T19:30:31;162.2;160.8;157.4
57798;PMS7003;43626;53.866;30.298;2023-07-31T19:35:53;168.6;166.6;161
57798;PMS7003;43626;53.866;30.298;2023-07-31T19:40:57;177;175;170.4
57798;PMS7003;43626;53.866;30.298;2023-07-31T19:46:05;176;175;170
57798;PMS7003;43626;53.866;30.298;2023-07-31T19:50:23;179.4;176.8;173.4
57798;PMS7003;43626;53.866;30.298;2023-07-31T19:55:23;197.6;195.2;190.6
57798;PMS7003;43626;53.866;30.298;2023-07-31T20:00:19;182.4;180.4;176.4
57798;PMS7003;43626;53.866;30.298;2023-07-31T20:06:03;173.6;171.6;166.4
57798;PMS7003;43626;53.866;30.298;2023-07-31T20:11:05;185.8;183.6;179.8
57798;PMS7003;43626;53.866;30.298;2023-07-31T20:16:06;175;168.8;164.4
57798;PMS7003;43626;53.866;30.298;2023-07-31T20:21:05;176;170;165
57798;PMS7003;43626;53.866;30.298;2023-07-31T20:25:49;174;168.2;165
57798;PMS7003;43626;53.866;30.298;2023-07-31T20:30:19;176.8;172.2;168.2
57798;PMS7003;43626;53.866;30.298;2023-07-31T20:35:49;182.6;179.6;174.8
57798;PMS7003;43626;53.866;30.298;2023-07-31T20:41:03;180.6;174.6;170
57798;PMS7003;43626;53.866;30.298;2023-07-31T20:46:05;170.3;166.3;161.5
57798;PMS7003;43626;53.866;30.298;2023-07-31T20:50:37;164.4;160.6;157.4
57798;PMS7003;43626;53.866;30.298;2023-07-31T20:56:05;161.6;159.6;155
57798;PMS7003;43626;53.866;30.298;2023-07-31T21:00:19;158.4;156;151.6
57798;PMS7003;43626;53.866;30.298;2023-07-31T21:05:31;159.2;155.4;151.4
57798;PMS7003;43626;53.866;30.298;2023-07-31T21:10:31;160.4;154.2;149.4
57798;PMS7003;43626;53.866;30.298;2023-07-31T21:15:39;157.8;154.8;150
57798;PMS7003;43626;53.866;30.298;2023-07-31T21:20:47;159.2;155;150.6
57798;PMS7003;43626;53.866;30.298;2023-07-31T21:25:49;156.8;151.2;147.6
57798;PMS7003;43626;53.866;30.298;2023-07-31T21:30:19;154.6;149.6;146
57798;PMS7003;43626;53.866;30.298;2023-07-31T21:35:19;160.2;156.8;153.4
57798;PMS7003;43626;53.866;30.298;2023-07-31T21:40:19;152.6;147.8;143.6
57798;PMS7003;43626;53.866;30.298;2023-07-31T21:45:49;154.4;150;145.6
57798;PMS7003;43626;53.866;30.298;2023-07-31T21:50:37;158.8;156;151.5
57798;PMS7003;43626;53.866;30.298;2023-07-31T21:55:47;157;150.8;146.6
57798;PMS7003;43626;53.866;30.298;2023-07-31T22:01:05;154.2;150.2;146.2
57798;PMS7003;43626;53.866;30.298;2023-07-31T22:05:39;153.2;146.6;141.6
57798;PMS7003;43626;53.866;30.298;2023-07-31T22:10:19;152.8;147.8;143.6
57798;PMS7003;43626;53.866;30.298;2023-07-31T22:15:47;155.8;150.8;146.2
57798;PMS7003;43626;53.866;30.298;2023-07-31T22:20:31;145.4;142;137.8
57798;PMS7003;43626;53.866;30.298;2023-07-31T22:25:19;149.6;146.2;142
57798;PMS7003;43626;53.866;30.298;2023-07-31T22:30:51;146;142.6;137.8
57798;PMS7003;43626;53.866;30.298;2023-07-31T22:36:05;130.6;123.4;118.6
57798;PMS7003;43626;53.866;30.298;2023-07-31T22:40:19;135;129;125.2
57798;PMS7003;43626;53.866;30.298;2023-07-31T22:45:19;143.8;137.2;131.6
57798;PMS7003;43626;53.866;30.298;2023-07-31T22:51:05;156.8;151.3;147.5
57798;PMS7003;43626;53.866;30.298;2023-07-31T22:55:31;159;152.6;148.2
57798;PMS7003;43626;53.866;30.298;2023-07-31T23:00:37;156.6;152.2;148.4
57798;PMS7003;43626;53.866;30.298;2023-07-31T23:05:39;157.4;154.4;150.4
57798;PMS7003;43626;53.866;30.298;2023-07-31T23:10:55;153.4;146.8;142.8
57798;PMS7003;43626;53.866;30.298;2023-07-31T23:15:49;154.8;150.6;146.6
57798;PMS7003;43626;53.866;30.298;2023-07-31T23:20:35;149.8;144.8;140.4
57798;PMS7003;43626;53.866;30.298;2023-07-31T23:26:01;153;150;145.4
57798;PMS7003;43626;53.866;30.298;2023-07-31T23:31:00;149.2;146.2;142.8
57798;PMS7003;43626;53.866;30.298;2023-07-31T23:35:37;123;117.6;114.2
57798;PMS7003;43626;53.866;30.298;2023-07-31T23:40:19;126.2;120.8;116.8
57798;PMS7003;43626;53.866;30.298;2023-07-31T23:46:05;161;156.6;152.6
57798;PMS7003;43626;53.866;30.298;2023-07-31T23:50:19;167.8;161.3;158
57798;PMS7003;43626;53.866;30.298;2023-07-31T23:56:05;170.2;165;160.8
